createdAt,value
2022-09-01T00:00:03.674Z,23.40
2022-09-01T00:02:38.905Z,23.30
2022-09-01T00:05:09.335Z,23.30
2022-09-01T00:07:39.489Z,23.30
2022-09-01T00:10:10.025Z,23.30
2022-09-01T00:12:39.948Z,23.20
2022-09-01T00:15:11.219Z,23.10
2022-09-01T00:17:41.707Z,23.00
2022-09-01T00:20:11.680Z,22.90
2022-09-01T00:22:41.689Z,22.90
2022-09-01T00:25:11.053Z,22.90
2022-09-01T00:27:39.806Z,22.90
2022-09-01T00:30:09.628Z,23.00
2022-09-01T00:32:38.257Z,22.90
2022-09-01T00:35:08.843Z,22.90
2022-09-01T00:37:37.528Z,22.80
2022-09-01T00:40:10.707Z,22.80
2022-09-01T00:42:40.116Z,22.80
2022-09-01T00:45:10.451Z,22.90
2022-09-01T00:47:39.758Z,23.00
2022-09-01T00:50:11.621Z,22.90
2022-09-01T00:52:46.714Z,23.00
2022-09-01T00:55:20.183Z,22.90
2022-09-01T00:57:49.728Z,22.90
2022-09-01T01:00:21.408Z,22.90
2022-09-01T01:02:56.321Z,22.90
2022-09-01T01:05:28.220Z,22.90
2022-09-01T01:08:01.606Z,22.90
2022-09-01T01:10:36.025Z,22.90
2022-09-01T01:13:10.126Z,22.90
2022-09-01T01:15:39.220Z,22.70
2022-09-01T01:18:10.373Z,22.70
2022-09-01T01:20:56.738Z,22.80
2022-09-01T01:23:37.299Z,22.80
2022-09-01T01:26:09.525Z,22.80
2022-09-01T01:28:41.346Z,22.50
2022-09-01T01:31:13.108Z,22.60
2022-09-01T01:33:44.819Z,22.60
2022-09-01T01:36:32.295Z,22.60
2022-09-01T01:39:08.411Z,22.70
2022-09-01T01:41:41.090Z,22.60
2022-09-01T01:44:13.352Z,22.50
2022-09-01T01:46:44.259Z,22.60
2022-09-01T01:49:15.543Z,22.60
2022-09-01T01:51:44.216Z,22.50
2022-09-01T01:54:14.393Z,22.50
2022-09-01T01:56:44.528Z,22.50
2022-09-01T01:59:15.536Z,22.40
2022-09-01T02:01:51.597Z,22.40
2022-09-01T02:04:21.470Z,22.50
2022-09-01T02:06:52.168Z,22.50
2022-09-01T02:09:23.410Z,22.40
2022-09-01T02:11:57.355Z,22.40
2022-09-01T02:14:27.952Z,22.40
2022-09-01T02:16:56.855Z,22.40
2022-09-01T02:19:25.968Z,22.40
2022-09-01T02:21:56.357Z,22.30
2022-09-01T02:24:26.607Z,22.40
2022-09-01T02:27:00.647Z,22.30
2022-09-01T02:29:33.291Z,22.30
2022-09-01T02:32:08.840Z,22.30
2022-09-01T02:34:40.114Z,22.30
2022-09-01T02:37:08.734Z,22.30
2022-09-01T02:39:37.304Z,22.30
2022-09-01T02:42:08.565Z,22.30
2022-09-01T02:44:41.410Z,22.40
2022-09-01T02:47:10.296Z,22.20
2022-09-01T02:49:38.930Z,22.30
2022-09-01T02:52:08.229Z,22.40
2022-09-01T02:54:37.389Z,22.40
2022-09-01T02:57:09.229Z,22.40
2022-09-01T02:59:43.148Z,22.50
2022-09-01T03:02:13.667Z,22.60
2022-09-01T03:04:42.513Z,22.60
2022-09-01T03:07:11.098Z,22.60
2022-09-01T03:09:41.724Z,22.60
2022-09-01T03:12:11.729Z,22.60
2022-09-01T03:14:40.270Z,22.60
2022-09-01T03:17:08.985Z,22.60
2022-09-01T03:19:45.370Z,22.60
2022-09-01T03:22:14.275Z,22.50
2022-09-01T03:24:43.286Z,22.50
2022-09-01T03:27:13.630Z,22.50
2022-09-01T03:29:42.323Z,22.40
2022-09-01T03:32:11.209Z,22.40
2022-09-01T03:34:40.091Z,22.30
2022-09-01T03:37:09.842Z,22.40
2022-09-01T03:39:38.644Z,22.40
2022-09-01T03:42:11.031Z,22.40
2022-09-01T03:44:44.391Z,22.30
2022-09-01T03:47:17.152Z,22.20
2022-09-01T03:49:49.662Z,22.20
2022-09-01T03:52:20.228Z,22.30
2022-09-01T03:54:54.107Z,22.30
2022-09-01T03:57:23.434Z,22.20
2022-09-01T03:59:55.276Z,22.20
2022-09-01T04:02:29.615Z,22.10
2022-09-01T04:04:59.160Z,22.10
2022-09-01T04:07:29.028Z,22.00
2022-09-01T04:09:57.757Z,22.00
2022-09-01T04:12:26.552Z,22.00
2022-09-01T04:14:56.478Z,22.00
2022-09-01T04:17:42.400Z,21.90
2022-09-01T04:20:12.348Z,22.00
2022-09-01T04:22:41.638Z,21.90
2022-09-01T04:25:11.207Z,22.00
2022-09-01T04:27:40.698Z,22.00
2022-09-01T04:30:13.464Z,22.00
2022-09-01T04:32:47.500Z,22.00
2022-09-01T04:35:17.756Z,22.00
2022-09-01T04:37:48.529Z,22.00
2022-09-01T04:40:18.865Z,22.10
2022-09-01T04:42:48.458Z,22.10
2022-09-01T04:45:22.523Z,22.10
2022-09-01T04:47:52.487Z,22.00
2022-09-01T04:50:22.261Z,22.10
2022-09-01T04:53:12.196Z,22.10
2022-09-01T04:55:46.291Z,22.10
2022-09-01T04:58:20.863Z,22.00
2022-09-01T05:00:53.275Z,21.90
2022-09-01T05:03:24.538Z,21.90
2022-09-01T05:06:18.582Z,22.10
2022-09-01T05:08:59.594Z,22.20
2022-09-01T05:11:54.767Z,22.20
2022-09-01T05:14:30.957Z,22.20
2022-09-01T05:17:02.020Z,22.20
2022-09-01T05:19:30.998Z,22.20
2022-09-01T05:22:01.995Z,22.10
2022-09-01T05:24:39.769Z,22.00
2022-09-01T05:27:14.656Z,22.10
2022-09-01T05:29:47.061Z,22.10
2022-09-01T05:32:17.142Z,22.20
2022-09-01T05:34:46.324Z,22.30
2022-09-01T05:37:16.243Z,22.40
2022-09-01T05:39:44.906Z,22.50
2022-09-01T05:42:13.827Z,22.50
2022-09-01T05:44:45.107Z,22.60
2022-09-01T05:47:20.667Z,22.70
2022-09-01T05:49:51.096Z,22.80
2022-09-01T05:52:20.750Z,22.80
2022-09-01T05:54:49.932Z,22.90
2022-09-01T05:57:35.858Z,23.00
2022-09-01T06:00:11.284Z,23.00
2022-09-01T06:02:44.341Z,23.20
2022-09-01T06:05:21.060Z,23.40
2022-09-01T06:07:52.332Z,23.40
2022-09-01T06:10:22.095Z,23.60
2022-09-01T06:12:54.500Z,23.70
2022-09-01T06:15:29.859Z,23.80
2022-09-01T06:18:01.998Z,23.90
2022-09-01T06:20:34.045Z,24.00
2022-09-01T06:23:03.866Z,24.00
2022-09-01T06:25:32.809Z,24.10
2022-09-01T06:28:04.710Z,24.30
2022-09-01T06:30:36.607Z,24.40
2022-09-01T06:33:13.937Z,24.50
2022-09-01T06:35:48.581Z,24.60
2022-09-01T06:38:21.364Z,24.70
2022-09-01T06:40:54.766Z,24.90
2022-09-01T06:43:24.483Z,24.90
2022-09-01T06:45:54.919Z,24.90
2022-09-01T06:48:30.910Z,25.00
2022-09-01T06:51:19.991Z,25.10
2022-09-01T06:53:56.832Z,25.10
2022-09-01T06:56:30.986Z,25.10
2022-09-01T06:59:18.935Z,25.30
2022-09-01T07:01:52.535Z,25.30
2022-09-01T07:04:31.568Z,25.40
2022-09-01T07:10:21.267Z,25.60
2022-09-01T07:13:09.026Z,25.70
2022-09-01T07:18:34.011Z,26.00
2022-09-01T07:21:36.223Z,26.00
2022-09-01T07:27:09.240Z,26.00
2022-09-01T07:29:39.408Z,26.10
2022-09-01T07:35:00.153Z,26.30
2022-09-01T07:43:32.829Z,26.70
2022-09-01T07:46:37.042Z,26.90
2022-09-01T07:51:59.638Z,26.80
2022-09-01T07:54:30.668Z,26.90
2022-09-01T07:57:00.054Z,27.10
2022-09-01T07:59:30.091Z,27.20
2022-09-01T08:02:06.151Z,27.40
2022-09-01T08:04:35.331Z,27.50
2022-09-01T08:07:05.818Z,27.60
2022-09-01T08:09:43.703Z,27.70
2022-09-01T08:12:14.291Z,27.80
2022-09-01T08:17:51.518Z,28.10
2022-09-01T08:20:22.070Z,28.20
2022-09-01T08:22:54.151Z,28.30
2022-09-01T08:25:30.908Z,28.30
2022-09-01T08:28:00.773Z,28.30
2022-09-01T08:30:32.609Z,28.40
2022-09-01T08:33:10.253Z,28.50
2022-09-01T08:35:41.197Z,28.60
2022-09-01T08:38:12.538Z,28.80
2022-09-01T08:40:51.538Z,28.80
2022-09-01T08:43:34.225Z,28.90
2022-09-01T08:46:10.799Z,28.90
2022-09-01T08:49:24.112Z,28.70
2022-09-01T08:51:43.725Z,28.90
2022-09-01T08:54:27.674Z,29.10
2022-09-01T08:57:03.417Z,29.20
2022-09-01T09:00:01.338Z,29.20
2022-09-01T09:02:46.292Z,29.30
2022-09-01T09:05:32.165Z,29.30
2022-09-01T09:08:17.110Z,29.20
2022-09-01T09:10:56.636Z,29.20
2022-09-01T09:13:36.703Z,29.20
2022-09-01T09:16:11.248Z,28.80
2022-09-01T09:19:00.855Z,28.60
2022-09-01T09:21:34.762Z,28.70
2022-09-01T09:24:10.764Z,28.90
2022-09-01T09:26:42.972Z,29.20
2022-09-01T09:29:13.502Z,29.20
2022-09-01T09:31:50.491Z,29.20
2022-09-01T09:34:33.788Z,29.40
2022-09-01T09:37:25.417Z,29.60
2022-09-01T09:40:10.692Z,29.70
2022-09-01T09:42:40.570Z,29.80
2022-09-01T09:45:23.400Z,29.70
2022-09-01T09:47:53.129Z,29.60
2022-09-01T09:50:26.439Z,29.70
2022-09-01T09:53:11.535Z,29.80
2022-09-01T09:55:56.227Z,29.70
2022-09-01T09:58:29.005Z,29.60
2022-09-01T10:01:10.332Z,29.70
2022-09-01T10:03:43.409Z,29.70
2022-09-01T10:06:14.980Z,29.90
2022-09-01T10:08:48.142Z,30.10
2022-09-01T10:11:35.632Z,30.10
2022-09-01T10:14:08.749Z,30.20
2022-09-01T10:16:59.601Z,30.00
2022-09-01T10:19:35.753Z,30.00
2022-09-01T10:22:05.063Z,30.10
2022-09-01T10:24:39.330Z,30.30
2022-09-01T10:27:19.417Z,30.40
2022-09-01T10:30:12.070Z,30.50
2022-09-01T10:32:49.379Z,30.50
2022-09-01T10:35:23.872Z,30.50
2022-09-01T10:37:53.692Z,30.50
2022-09-01T10:40:43.276Z,30.80
2022-09-01T10:43:41.126Z,31.00
2022-09-01T10:46:51.471Z,31.10
2022-09-01T10:49:50.499Z,31.20
2022-09-01T10:52:53.756Z,31.10
2022-09-01T10:55:25.799Z,31.30
2022-09-01T10:58:09.434Z,31.40
2022-09-01T11:03:53.440Z,31.00
2022-09-01T11:07:17.206Z,31.00
2022-09-01T11:10:32.089Z,31.20
2022-09-01T11:13:38.664Z,31.20
2022-09-01T11:16:49.648Z,31.50
2022-09-01T11:19:36.467Z,31.50
2022-09-01T11:22:15.315Z,31.70
2022-09-01T11:25:00.242Z,32.00
2022-09-01T11:28:01.267Z,32.30
2022-09-01T11:30:55.439Z,32.20
2022-09-01T11:33:41.122Z,32.30
2022-09-01T11:36:17.057Z,32.70
2022-09-01T11:38:51.693Z,33.00
2022-09-01T11:41:33.195Z,33.00
2022-09-01T11:44:03.304Z,33.00
2022-09-01T11:46:36.083Z,33.00
2022-09-01T11:49:08.939Z,33.00
2022-09-01T11:51:46.994Z,33.00
2022-09-01T11:54:17.747Z,32.70
2022-09-01T11:56:46.333Z,32.70
2022-09-01T11:59:15.010Z,32.80
2022-09-01T12:01:43.554Z,32.80
2022-09-01T12:04:23.893Z,32.70
2022-09-01T12:06:59.252Z,32.60
2022-09-01T12:09:37.198Z,31.90
2022-09-01T12:12:08.231Z,31.70
2022-09-01T12:15:02.114Z,31.70
2022-09-01T12:17:46.075Z,31.70
2022-09-01T12:20:29.447Z,31.70
2022-09-01T12:23:00.500Z,31.60
2022-09-01T12:25:33.094Z,31.50
2022-09-01T12:28:02.979Z,31.40
2022-09-01T12:30:35.470Z,31.20
2022-09-01T12:33:24.209Z,31.10
2022-09-01T12:35:58.832Z,31.00
2022-09-01T12:38:31.931Z,31.10
2022-09-01T12:41:01.931Z,31.00
2022-09-01T12:43:33.285Z,31.00
2022-09-01T12:46:04.774Z,30.90
2022-09-01T12:48:35.157Z,30.90
2022-09-01T12:51:09.569Z,30.70
2022-09-01T12:53:38.471Z,30.60
2022-09-01T12:56:22.938Z,30.50
2022-09-01T12:59:04.342Z,30.50
2022-09-01T13:01:35.256Z,30.50
2022-09-01T13:04:27.441Z,30.80
2022-09-01T13:06:58.004Z,31.10
2022-09-01T13:09:26.570Z,30.80
2022-09-01T13:12:11.619Z,30.90
2022-09-01T13:14:40.224Z,31.00
2022-09-01T13:17:13.862Z,31.10
2022-09-01T13:19:43.489Z,31.20
2022-09-01T13:22:12.242Z,31.60
2022-09-01T13:24:41.607Z,31.80
2022-09-01T13:27:21.169Z,31.40
2022-09-01T13:29:50.416Z,31.10
2022-09-01T13:32:21.378Z,31.60
2022-09-01T13:34:51.781Z,31.60
2022-09-01T13:37:21.318Z,31.50
2022-09-01T13:39:50.396Z,31.80
2022-09-01T13:42:21.285Z,32.00
2022-09-01T13:44:54.129Z,32.00
2022-09-01T13:47:31.829Z,31.70
2022-09-01T13:50:11.315Z,31.40
2022-09-01T13:52:41.697Z,31.20
2022-09-01T13:55:12.923Z,31.60
2022-09-01T13:57:43.968Z,31.40
2022-09-01T14:00:16.595Z,31.30
2022-09-01T14:02:50.465Z,31.20
2022-09-01T14:05:21.730Z,31.20
2022-09-01T14:07:50.650Z,31.00
2022-09-01T14:10:20.944Z,30.90
2022-09-01T14:12:52.411Z,30.80
2022-09-01T14:15:27.010Z,31.00
2022-09-01T14:17:57.627Z,30.80
2022-09-01T14:20:29.086Z,30.50
2022-09-01T14:22:57.652Z,30.50
2022-09-01T14:25:26.607Z,30.40
2022-09-01T14:27:57.269Z,30.30
2022-09-01T14:30:31.163Z,30.30
2022-09-01T14:33:00.693Z,30.20
2022-09-01T14:35:34.345Z,30.10
2022-09-01T14:38:05.376Z,29.90
2022-09-01T14:40:33.973Z,29.90
2022-09-01T14:43:04.896Z,29.60
2022-09-01T14:45:33.445Z,29.30
2022-09-01T14:48:02.605Z,29.20
2022-09-01T14:50:34.130Z,29.00
2022-09-01T14:53:03.897Z,29.00
2022-09-01T14:55:32.954Z,29.10
2022-09-01T14:58:01.819Z,29.00
2022-09-01T15:00:36.054Z,29.00
2022-09-01T15:03:04.856Z,29.00
2022-09-01T15:05:34.877Z,29.10
2022-09-01T15:08:08.474Z,29.20
2022-09-01T15:10:36.996Z,29.30
2022-09-01T15:13:05.856Z,29.50
2022-09-01T15:15:36.368Z,29.50
2022-09-01T15:18:05.321Z,29.60
2022-09-01T15:20:51.070Z,29.60
2022-09-01T15:23:22.437Z,29.60
2022-09-01T15:25:54.076Z,29.50
2022-09-01T15:28:23.375Z,29.40
2022-09-01T15:30:54.401Z,29.30
2022-09-01T15:33:23.098Z,29.40
2022-09-01T15:35:51.630Z,29.40
2022-09-01T15:38:26.053Z,29.20
2022-09-01T15:40:58.462Z,29.20
2022-09-01T15:43:28.800Z,29.00
2022-09-01T15:46:04.396Z,28.90
2022-09-01T15:48:33.023Z,28.80
2022-09-01T15:51:28.078Z,28.70
2022-09-01T15:54:00.063Z,28.60
2022-09-01T15:56:29.374Z,28.50
2022-09-01T15:59:01.240Z,28.40
2022-09-01T16:01:34.142Z,28.30
2022-09-01T16:04:05.239Z,28.40
2022-09-01T16:06:34.869Z,28.50
2022-09-01T16:09:03.433Z,28.50
2022-09-01T16:11:31.976Z,28.40
2022-09-01T16:14:02.023Z,28.30
2022-09-01T16:16:46.221Z,28.20
2022-09-01T16:19:32.092Z,28.20
2022-09-01T16:22:09.089Z,28.20
2022-09-01T16:24:43.795Z,28.10
2022-09-01T16:27:17.254Z,28.10
2022-09-01T16:29:51.729Z,28.10
2022-09-01T16:32:23.473Z,28.10
2022-09-01T16:34:53.444Z,28.10
2022-09-01T16:37:37.745Z,28.00
2022-09-01T16:40:16.792Z,28.00
2022-09-01T16:42:50.560Z,27.80
2022-09-01T16:45:42.218Z,27.80
2022-09-01T16:48:19.734Z,27.70
2022-09-01T16:50:55.563Z,27.60
2022-09-01T16:53:35.980Z,27.60
2022-09-01T16:56:10.628Z,27.70
2022-09-01T16:58:47.313Z,27.80
2022-09-01T17:01:32.377Z,27.80
2022-09-01T17:04:17.100Z,27.80
2022-09-01T17:06:57.465Z,27.70
2022-09-01T17:09:32.698Z,27.80
2022-09-01T17:12:22.773Z,27.80
2022-09-01T17:14:57.769Z,27.70
2022-09-01T17:17:34.364Z,27.70
2022-09-01T17:20:07.229Z,27.70
2022-09-01T17:22:38.929Z,27.90
2022-09-01T17:25:12.818Z,27.90
2022-09-01T17:27:53.119Z,27.90
2022-09-01T17:30:22.272Z,27.90
2022-09-01T17:33:12.130Z,27.80
2022-09-01T17:35:58.542Z,27.70
2022-09-01T17:38:37.169Z,27.60
2022-09-01T17:41:19.735Z,27.40
2022-09-01T17:44:00.121Z,27.40
2022-09-01T17:46:35.782Z,27.30
2022-09-01T17:49:13.090Z,27.30
2022-09-01T17:51:48.861Z,27.30
2022-09-01T17:54:26.056Z,27.30
2022-09-01T17:57:05.519Z,27.20
2022-09-01T17:59:50.337Z,26.80
2022-09-01T18:02:48.455Z,26.20
2022-09-01T18:05:24.406Z,25.90
2022-09-01T18:08:13.679Z,25.70
2022-09-01T18:10:47.351Z,25.50
2022-09-01T18:13:30.835Z,25.50
2022-09-01T18:16:15.672Z,25.50
2022-09-01T18:18:47.151Z,25.50
2022-09-01T18:21:19.116Z,25.60
2022-09-01T18:23:52.759Z,25.60
2022-09-01T18:26:27.386Z,25.70
2022-09-01T18:28:56.196Z,25.70
2022-09-01T18:31:53.681Z,25.80
2022-09-01T18:34:34.705Z,25.80
2022-09-01T18:37:12.200Z,25.80
2022-09-01T18:39:52.586Z,25.90
2022-09-01T18:42:26.917Z,26.00
2022-09-01T18:45:06.188Z,25.90
2022-09-01T18:47:37.828Z,25.90
2022-09-01T18:50:14.296Z,25.90
2022-09-01T18:52:55.224Z,26.00
2022-09-01T18:55:33.435Z,26.00
2022-09-01T18:58:05.807Z,25.90
2022-09-01T19:00:42.283Z,25.80
2022-09-01T19:03:25.398Z,25.60
2022-09-01T19:06:07.009Z,25.40
2022-09-01T19:08:48.928Z,25.20
2022-09-01T19:11:32.779Z,25.00
2022-09-01T19:14:15.109Z,24.90
2022-09-01T19:16:57.888Z,24.80
2022-09-01T19:19:40.239Z,24.80
2022-09-01T19:22:14.951Z,24.50
2022-09-01T19:24:47.918Z,24.30
2022-09-01T19:27:22.315Z,24.00
2022-09-01T19:29:56.632Z,23.80
2022-09-01T19:32:29.872Z,23.30
2022-09-01T19:35:04.021Z,23.10
2022-09-01T19:37:32.773Z,23.00
2022-09-01T19:40:01.761Z,23.00
2022-09-01T19:42:37.847Z,22.90
2022-09-01T19:45:14.190Z,23.00
2022-09-01T19:47:48.963Z,22.90
2022-09-01T19:50:22.683Z,22.80
2022-09-01T19:52:57.105Z,22.70
2022-09-01T19:55:32.165Z,22.60
2022-09-01T19:58:06.532Z,22.50
2022-09-01T20:00:50.704Z,22.40
2022-09-01T20:03:25.426Z,22.30
2022-09-01T20:05:58.369Z,22.20
2022-09-01T20:08:34.862Z,22.30
2022-09-01T20:11:10.226Z,22.30
2022-09-01T20:14:02.856Z,22.10
2022-09-01T20:16:35.986Z,22.10
2022-09-01T20:19:09.189Z,22.20
2022-09-01T20:21:41.178Z,22.50
2022-09-01T20:24:16.220Z,22.60
2022-09-01T20:26:50.563Z,22.70
2022-09-01T20:29:32.539Z,22.80
2022-09-01T20:32:04.161Z,22.80
2022-09-01T20:34:40.557Z,22.70
2022-09-01T20:37:15.131Z,22.50
2022-09-01T20:40:04.920Z,22.30
2022-09-01T20:42:45.893Z,22.20
2022-09-01T20:45:19.669Z,22.10
2022-09-01T20:47:52.616Z,21.90
2022-09-01T20:50:24.474Z,21.90
2022-09-01T20:53:07.723Z,21.90
2022-09-01T20:55:41.814Z,22.00
2022-09-01T20:58:18.745Z,22.20
2022-09-01T21:00:53.785Z,22.40
2022-09-01T21:03:33.752Z,22.50
2022-09-01T21:06:10.477Z,22.50
2022-09-01T21:08:49.062Z,22.70
2022-09-01T21:11:33.830Z,22.80
2022-09-01T21:14:16.139Z,22.70
2022-09-01T21:16:57.698Z,22.80
2022-09-01T21:19:33.373Z,23.00
2022-09-01T21:22:06.410Z,23.00
2022-09-01T21:24:38.990Z,23.10
2022-09-01T21:27:12.327Z,23.00
2022-09-01T21:29:53.587Z,22.90
2022-09-01T21:32:24.579Z,22.90
2022-09-01T21:34:54.207Z,22.90
2022-09-01T21:37:23.856Z,22.90
2022-09-01T21:39:53.633Z,22.90
2022-09-01T21:42:25.200Z,22.90
2022-09-01T21:44:55.186Z,22.90
2022-09-01T21:47:25.668Z,23.00
2022-09-01T21:49:54.198Z,23.00
2022-09-01T21:52:23.359Z,23.00
2022-09-01T21:54:51.877Z,23.00
2022-09-01T21:57:21.507Z,23.10
2022-09-01T21:59:50.536Z,23.30
2022-09-01T22:02:20.217Z,23.40
2022-09-01T22:04:50.306Z,23.30
2022-09-01T22:07:21.015Z,23.40
2022-09-01T22:09:50.513Z,23.40
2022-09-01T22:12:19.301Z,23.50
2022-09-01T22:14:47.933Z,23.50
2022-09-01T22:17:16.575Z,23.40
2022-09-01T22:19:45.321Z,23.30
2022-09-01T22:22:16.581Z,23.20
2022-09-01T22:24:45.227Z,23.20
2022-09-01T22:27:13.844Z,23.20
2022-09-01T22:29:43.587Z,23.20
2022-09-01T22:32:12.230Z,23.20
2022-09-01T22:34:43.654Z,23.30
2022-09-01T22:37:12.708Z,23.40
2022-09-01T22:39:42.752Z,23.50
2022-09-01T22:42:11.449Z,23.60
2022-09-01T22:44:40.055Z,23.70
2022-09-01T22:47:08.789Z,23.60
2022-09-01T22:49:37.369Z,23.60
2022-09-01T22:52:06.033Z,23.70
2022-09-01T22:54:34.763Z,23.70
2022-09-01T22:57:06.030Z,23.60
2022-09-01T22:59:34.683Z,23.60
2022-09-01T23:02:03.406Z,23.60
2022-09-01T23:04:33.005Z,23.50
2022-09-01T23:07:01.705Z,23.60
2022-09-01T23:09:31.094Z,23.50
2022-09-01T23:11:59.820Z,23.40
2022-09-01T23:14:29.853Z,23.30
2022-09-01T23:16:59.307Z,23.30
2022-09-01T23:19:28.038Z,23.40
2022-09-01T23:21:56.680Z,23.30
2022-09-01T23:24:25.308Z,23.40
2022-09-01T23:26:53.957Z,23.40
2022-09-01T23:29:23.343Z,23.40
2022-09-01T23:31:53.557Z,23.40
2022-09-01T23:34:22.198Z,23.50
2022-09-01T23:36:50.806Z,23.60
2022-09-01T23:39:19.446Z,23.50
2022-09-01T23:41:48.084Z,23.30
2022-09-01T23:44:17.062Z,23.10
2022-09-01T23:46:47.388Z,22.90
2022-09-01T23:49:19.130Z,22.80
2022-09-01T23:51:49.349Z,22.60
2022-09-01T23:54:18.150Z,22.50
2022-09-01T23:56:47.020Z,22.40
2022-09-01T23:59:15.922Z,22.50
